TimeCDT,TemperatureF,Dew PointF,Humidity,Sea Level PressureIn,VisibilityMPH,Wind Direction,Wind SpeedMPH,Gust SpeedMPH,PrecipitationIn,Events,Conditions,WindDirDegrees,DateUTC
12:14 AM,50.0,44.6,82,30.00,10.0,Calm,Calm,-,N/A,,Clear,0,2013-07-21 05:14:00
12:34 AM,50.0,44.6,82,30.00,10.0,Calm,Calm,-,N/A,,Clear,0,2013-07-21 05:34:00
12:54 AM,50.0,44.6,82,29.99,10.0,Calm,Calm,-,N/A,,Clear,0,2013-07-21 05:54:00
1:14 AM,48.2,42.8,82,29.99,10.0,Calm,Calm,-,N/A,,Clear,0,2013-07-21 06:14:00
1:34 AM,48.2,42.8,82,29.99,10.0,Calm,Calm,-,N/A,,Clear,0,2013-07-21 06:34:00
1:54 AM,48.2,44.6,87,29.99,10.0,Calm,Calm,-,N/A,,Clear,0,2013-07-21 06:54:00
2:14 AM,46.4,42.8,87,29.99,10.0,Calm,Calm,-,N/A,,Clear,0,2013-07-21 07:14:00
2:34 AM,48.2,42.8,82,29.99,10.0,Calm,Calm,-,N/A,,Clear,0,2013-07-21 07:34:00
2:54 AM,46.4,42.8,87,29.99,10.0,Calm,Calm,-,N/A,,Clear,0,2013-07-21 07:54:00
3:14 AM,48.2,42.8,82,29.99,10.0,Calm,Calm,-,N/A,,Clear,0,2013-07-21 08:14:00
3:34 AM,46.4,42.8,87,29.99,10.0,Calm,Calm,-,N/A,,Clear,0,2013-07-21 08:34:00
3:54 AM,46.4,41.0,81,29.98,10.0,Calm,Calm,-,N/A,,Clear,0,2013-07-21 08:54:00
4:14 AM,44.6,41.0,87,29.97,10.0,Calm,Calm,-,N/A,,Clear,0,2013-07-21 09:14:00
4:34 AM,44.6,39.2,81,29.97,10.0,Calm,Calm,-,N/A,,Scattered Clouds,0,2013-07-21 09:34:00
4:54 AM,44.6,39.2,81,29.97,10.0,Calm,Calm,-,N/A,,Scattered Clouds,0,2013-07-21 09:54:00
5:14 AM,44.6,39.2,81,29.96,10.0,ENE,3.5,-,N/A,,Clear,60,2013-07-21 10:14:00
5:34 AM,44.6,39.2,81,29.96,10.0,Calm,Calm,-,N/A,,Clear,0,2013-07-21 10:34:00
5:54 AM,44.6,39.2,81,29.96,10.0,Calm,Calm,-,N/A,,Clear,0,2013-07-21 10:54:00
6:14 AM,44.6,39.2,81,29.96,10.0,Calm,Calm,-,N/A,,Clear,0,2013-07-21 11:14:00
6:34 AM,44.6,39.2,81,29.96,10.0,Calm,Calm,-,N/A,,Clear,0,2013-07-21 11:34:00
6:54 AM,46.4,42.8,87,29.95,10.0,Calm,Calm,-,N/A,,Clear,0,2013-07-21 11:54:00
7:14 AM,48.2,44.6,87,29.96,10.0,Calm,Calm,-,N/A,,Clear,0,2013-07-21 12:14:00
7:34 AM,51.8,46.4,82,29.95,10.0,Calm,Calm,-,N/A,,Clear,0,2013-07-21 12:34:00
7:54 AM,53.6,48.2,82,29.95,10.0,Calm,Calm,-,N/A,,Clear,0,2013-07-21 12:54:00
8:14 AM,57.2,51.8,82,29.95,10.0,Calm,Calm,-,N/A,,Clear,0,2013-07-21 13:14:00
8:34 AM,59.0,51.8,77,29.94,10.0,SE,4.6,-,N/A,,Clear,130,2013-07-21 13:34:00
8:54 AM,60.8,53.6,77,29.94,10.0,SE,4.6,-,N/A,,Clear,140,2013-07-21 13:54:00
9:14 AM,62.6,53.6,72,29.93,10.0,ESE,3.5,-,N/A,,Clear,110,2013-07-21 14:14:00
9:34 AM,66.2,55.4,68,29.93,10.0,East,4.6,-,N/A,,Clear,90,2013-07-21 14:34:00
9:54 AM,66.2,55.4,68,29.93,10.0,ESE,3.5,-,N/A,,Clear,120,2013-07-21 14:54:00
10:14 AM,66.2,53.6,64,29.92,10.0,Calm,Calm,-,N/A,,Clear,0,2013-07-21 15:14:00
10:34 AM,66.2,55.4,68,29.92,10.0,Calm,Calm,-,N/A,,Clear,0,2013-07-21 15:34:00
10:54 AM,69.8,53.6,56,29.91,10.0,ESE,3.5,-,N/A,,Clear,110,2013-07-21 15:54:00
11:14 AM,69.8,53.6,56,29.91,10.0,ESE,4.6,-,N/A,,Clear,120,2013-07-21 16:14:00
11:34 AM,69.8,53.6,56,29.90,10.0,SE,4.6,-,N/A,,Clear,130,2013-07-21 16:34:00
11:54 AM,69.8,55.4,60,29.89,10.0,SE,6.9,-,N/A,,Clear,130,2013-07-21 16:54:00
12:14 PM,71.6,55.4,57,29.88,10.0,ESE,6.9,-,N/A,,Scattered Clouds,120,2013-07-21 17:14:00
12:34 PM,71.6,57.2,60,29.88,10.0,SE,5.8,-,N/A,,Scattered Clouds,140,2013-07-21 17:34:00
12:54 PM,71.6,55.4,57,29.87,10.0,Calm,Calm,-,N/A,,Scattered Clouds,0,2013-07-21 17:54:00
1:14 PM,71.6,57.2,60,29.85,10.0,SSE,9.2,-,N/A,,Scattered Clouds,160,2013-07-21 18:14:00
1:34 PM,73.4,57.2,57,29.85,10.0,South,9.2,-,N/A,,Scattered Clouds,180,2013-07-21 18:34:00
1:54 PM,73.4,57.2,57,29.85,10.0,SSW,6.9,-,N/A,,Scattered Clouds,200,2013-07-21 18:54:00
2:14 PM,73.4,57.2,57,29.84,10.0,SSE,10.4,-,N/A,,Clear,160,2013-07-21 19:14:00
2:34 PM,73.4,57.2,57,29.83,10.0,SSW,8.1,-,N/A,,Clear,210,2013-07-21 19:34:00
2:54 PM,75.2,59.0,57,29.82,10.0,South,11.5,16.1,N/A,,Clear,170,2013-07-21 19:54:00
3:14 PM,75.2,59.0,57,29.81,10.0,South,9.2,-,N/A,,Clear,180,2013-07-21 20:14:00
3:34 PM,75.2,59.0,57,29.80,10.0,South,9.2,18.4,N/A,,Clear,190,2013-07-21 20:34:00
3:54 PM,75.2,60.8,61,29.79,10.0,South,10.4,16.1,N/A,,Clear,170,2013-07-21 20:54:00
4:14 PM,77.0,60.8,57,29.78,10.0,SSW,13.8,17.3,N/A,,Scattered Clouds,200,2013-07-21 21:14:00
4:35 PM,77.0,60.8,57,29.78,10.0,South,12.7,16.1,N/A,,Scattered Clouds,190,2013-07-21 21:35:00
4:54 PM,75.2,60.8,61,29.78,10.0,South,11.5,-,N/A,,Clear,180,2013-07-21 21:54:00
5:14 PM,75.2,60.8,61,29.77,10.0,SSW,10.4,-,N/A,,Clear,200,2013-07-21 22:14:00
5:35 PM,75.2,60.8,61,29.76,10.0,SSW,9.2,-,N/A,,Clear,200,2013-07-21 22:35:00
5:54 PM,78.8,62.6,57,29.75,10.0,South,9.2,-,N/A,,Clear,180,2013-07-21 22:54:00
6:14 PM,75.2,60.8,61,29.74,10.0,South,11.5,-,N/A,,Scattered Clouds,190,2013-07-21 23:14:00
6:35 PM,77.0,62.6,61,29.74,10.0,SSW,10.4,-,N/A,,Scattered Clouds,200,2013-07-21 23:35:00
6:54 PM,75.2,62.6,65,29.74,10.0,South,4.6,-,N/A,,Scattered Clouds,190,2013-07-21 23:54:00
7:14 PM,75.2,62.6,65,29.74,10.0,SSW,5.8,-,N/A,,Scattered Clouds,200,2013-07-22 00:14:00
7:35 PM,73.4,62.6,69,29.73,10.0,South,5.8,-,N/A,,Scattered Clouds,190,2013-07-22 00:35:00
7:54 PM,71.6,62.6,73,29.69,10.0,SSE,10.4,-,N/A,Rain,Light Rain,160,2013-07-22 00:54:00
8:14 PM,69.8,62.6,78,29.67,10.0,SSE,10.4,-,N/A,,Light Drizzle,160,2013-07-22 01:14:00
8:35 PM,69.8,62.6,78,29.67,10.0,South,8.1,-,N/A,,Clear,180,2013-07-22 01:35:00
8:54 PM,69.8,62.6,78,29.67,10.0,South,5.8,-,N/A,,Clear,170,2013-07-22 01:54:00
9:14 PM,69.8,62.6,78,29.67,10.0,South,5.8,-,N/A,,Mostly Cloudy,180,2013-07-22 02:14:00
9:34 PM,69.8,62.6,78,29.68,10.0,South,8.1,-,N/A,,Overcast,190,2013-07-22 02:34:00
9:54 PM,69.8,62.6,78,29.67,10.0,South,9.2,-,N/A,,Mostly Cloudy,170,2013-07-22 02:54:00
10:14 PM,69.8,62.6,78,29.67,10.0,South,6.9,-,N/A,Rain,Light Rain,180,2013-07-22 03:14:00
10:34 PM,68.0,62.6,83,29.65,10.0,South,13.8,-,0.02,Rain-Thunderstorm,Rain,170,2013-07-22 03:34:00
10:54 PM,66.2,60.8,83,29.63,10.0,South,16.1,-,0.11,Rain,Light Rain,170,2013-07-22 03:54:00
11:14 PM,66.2,60.8,83,29.61,10.0,South,16.1,23.0,0.04,Rain,Light Rain,170,2013-07-22 04:14:00
11:34 PM,66.2,60.8,83,29.61,10.0,South,13.8,-,0.04,,Mostly Cloudy,170,2013-07-22 04:34:00
11:54 PM,66.2,60.8,83,29.62,10.0,South,12.7,-,0.04,Rain-Thunderstorm,Light Thunderstorms and Rain,180,2013-07-22 04:54:00